Time;durP1;ratioP1;P1;durP2;ratioP2;P2;SDS_P1;SDS_P2;PMS_P1;PMS_P2;Temp;Humidity;BMP_temperature;BMP_pressure;BME280_temperature;BME280_humidity;BME280_pressure;Samples;Min_cycle;Max_cycle;Signal;HPM_P1;HPM_P2
2021/12/09 00:00:59;;;;;;;21.48;11.40;;;;;;;-5.94;71.03;99590.50;4932760;29;20066;-81
2021/12/09 00:03:28;;;;;;;21.55;11.48;;;;;;;-5.82;71.55;99592.84;4927827;28;20119;-82
2021/12/09 00:05:58;;;;;;;19.98;11.00;;;;;;;-5.88;70.57;99579.06;4923670;29;20049;-81
2021/12/09 00:08:26;;;;;;;20.20;11.57;;;;;;;-5.97;70.42;99580.22;4940002;28;20101;-81
2021/12/09 00:10:53;;;;;;;21.38;11.18;;;;;;;-5.92;69.96;99584.75;4930877;28;20062;-81
2021/12/09 00:13:19;;;;;;;20.55;10.93;;;;;;;-5.77;70.10;99601.56;4939745;29;20039;-81
2021/12/09 00:15:45;;;;;;;20.73;11.35;;;;;;;-5.87;69.74;99590.91;4941078;28;20134;-81
2021/12/09 00:18:10;;;;;;;22.60;11.25;;;;;;;-5.94;69.59;99578.75;4948266;29;20071;-81
2021/12/09 00:20:36;;;;;;;;;;;;;;;-5.93;69.79;99604.88;4937032;28;20082;-81
2021/12/09 00:23:02;;;;;;;20.35;10.65;;;;;;;-6.00;69.56;99597.69;4939547;28;20399;-81
2021/12/09 00:25:27;;;;;;;21.50;11.75;;;;;;;-6.11;69.24;99593.66;4921876;28;20118;-81
2021/12/09 00:27:53;;;;;;;;;;;;;;;-6.25;70.07;99586.13;4939649;29;20174;-80
2021/12/09 00:30:20;;;;;;;20.42;11.60;;;;;;;-6.19;70.82;99583.97;4954765;28;19918;-81
2021/12/09 00:32:46;;;;;;;43.05;24.90;;;;;;;-6.21;70.91;99590.59;4941702;28;20537;-82
2021/12/09 00:35:14;;;;;;;21.02;11.60;;;;;;;-6.11;70.50;99593.66;4922331;29;20031;-81
2021/12/09 00:37:52;;;;;;;19.95;11.25;;;;;;;-6.10;70.16;99593.75;4956846;28;20047;-81
2021/12/09 00:40:18;;;;;;;18.85;10.48;;;;;;;-6.13;70.31;99600.28;4950212;29;20043;-80
2021/12/09 00:42:43;;;;;;;23.30;11.45;;;;;;;-6.09;70.73;99599.66;4933139;29;20461;-80
2021/12/09 00:45:09;;;;;;;24.15;11.60;;;;;;;-6.11;70.32;99589.47;4951343;28;20031;-80
2021/12/09 00:47:35;;;;;;;23.92;10.88;;;;;;;-6.03;70.16;99603.44;4939752;29;20129;-80
2021/12/09 00:50:00;;;;;;;23.70;11.57;;;;;;;-6.14;70.28;99599.38;4945505;29;20047;-81
2021/12/09 00:52:27;;;;;;;20.75;11.73;;;;;;;-6.28;70.09;99605.25;4950165;28;20054;-80
2021/12/09 00:54:54;;;;;;;19.42;10.27;;;;;;;-6.33;70.39;99604.09;4938810;29;20051;-80
2021/12/09 00:57:20;;;;;;;18.98;10.52;;;;;;;-6.16;70.92;99611.94;4936686;28;20047;-81
2021/12/09 00:59:48;;;;;;;18.45;10.18;;;;;;;-6.15;70.52;99617.84;4956092;28;20129;-81
2021/12/09 01:02:14;;;;;;;21.58;10.05;;;;;;;-6.07;71.33;99613.28;4935821;28;20030;-81
2021/12/09 01:04:42;;;;;;;20.40;11.30;;;;;;;-6.07;71.41;99615.81;4937601;28;20051;-81
2021/12/09 01:07:08;;;;;;;20.63;11.23;;;;;;;-6.06;71.89;99623.47;4944169;29;20395;-80
2021/12/09 01:09:33;;;;;;;20.05;11.02;;;;;;;-6.09;71.78;99627.44;4922672;28;20070;-79
2021/12/09 01:11:59;;;;;;;;;;;;;;;-6.06;72.09;99622.59;4938362;28;20047;-79
2021/12/09 01:14:25;;;;;;;22.08;11.75;;;;;;;-6.13;71.25;99625.53;4922683;29;20298;-80
2021/12/09 01:16:51;;;;;;;23.85;11.48;;;;;;;-6.23;71.17;99617.41;4951851;29;20049;-80
2021/12/09 01:19:17;;;;;;;19.08;10.05;;;;;;;-6.17;71.47;99615.25;4944571;29;20114;-81
2021/12/09 01:21:43;;;;;;;23.27;12.20;;;;;;;-6.22;71.68;99619.13;4908086;28;20043;-81
2021/12/09 01:24:08;;;;;;;20.52;11.55;;;;;;;-6.27;71.49;99619.66;4928610;29;20122;-80
2021/12/09 01:26:35;;;;;;;26.10;11.88;;;;;;;-6.30;71.89;99617.78;4934666;28;20046;-81
2021/12/09 01:29:07;;;;;;;19.25;10.50;;;;;;;-6.39;71.63;99612.19;4922553;29;20062;-81
2021/12/09 01:31:37;;;;;;;20.45;10.90;;;;;;;-6.39;72.14;99614.69;4922996;29;20043;-81
2021/12/09 01:34:04;;;;;;;19.27;10.40;;;;;;;-6.30;73.10;99629.53;4935154;28;20050;-80
2021/12/09 01:36:34;;;;;;;21.27;10.60;;;;;;;-6.28;72.44;99621.25;4938539;29;20494;-81
2021/12/09 01:39:01;;;;;;;19.75;11.00;;;;;;;-6.24;72.63;99624.84;4938957;28;20126;-80
2021/12/09 01:41:27;;;;;;;22.10;11.85;;;;;;;-6.25;72.08;99616.41;4929622;28;20434;-80
2021/12/09 01:43:54;;;;;;;21.80;10.95;;;;;;;-6.15;72.85;99621.25;4935626;29;20137;-80
2021/12/09 01:46:20;;;;;;;19.25;10.13;;;;;;;-6.17;72.31;99625.34;4939862;29;20122;-80
2021/12/09 01:48:47;;;;;;;20.42;11.20;;;;;;;-6.22;72.68;99630.91;4922425;29;20035;-82
2021/12/09 01:51:13;;;;;;;19.17;10.65;;;;;;;-6.20;72.64;99626.78;4948098;28;20490;-80
2021/12/09 01:53:39;;;;;;;17.55;9.98;;;;;;;-6.21;72.44;99628.44;4930098;29;20039;-81
2021/12/09 01:56:07;;;;;;;20.45;10.90;;;;;;;-6.34;71.96;99628.47;4926851;28;20046;-81
2021/12/09 01:58:33;;;;;;;19.35;10.02;;;;;;;-6.36;72.41;99622.47;4942761;29;20458;-81
2021/12/09 02:00:59;;;;;;;19.83;10.77;;;;;;;-6.30;72.84;99627.88;4936049;28;20144;-80
2021/12/09 02:03:25;;;;;;;18.75;10.45;;;;;;;-6.35;72.68;99629.25;4951386;29;20126;-81
2021/12/09 02:05:50;;;;;;;20.15;10.32;;;;;;;-6.28;72.65;99636.41;4937704;29;20047;-80
2021/12/09 02:08:16;;;;;;;19.10;9.55;;;;;;;-6.24;72.04;99638.34;4937815;29;20042;-80
2021/12/09 02:10:45;;;;;;;17.85;10.30;;;;;;;-6.28;72.22;99644.00;4938353;29;20458;-82
2021/12/09 02:13:12;;;;;;;23.60;9.50;;;;;;;-6.30;72.36;99634.59;4922464;28;20364;-81
2021/12/09 02:15:39;;;;;;;19.08;10.10;;;;;;;-6.28;72.29;99641.47;4930786;28;20035;-83
2021/12/09 02:18:06;;;;;;;19.42;10.75;;;;;;;-6.32;71.99;99634.50;4944812;28;20067;-80
2021/12/09 02:20:36;;;;;;;20.83;10.95;;;;;;;-6.42;71.55;99634.69;4925893;29;20077;-80
2021/12/09 02:23:08;;;;;;;19.02;10.02;;;;;;;-6.48;71.87;99624.22;4936764;29;20058;-80
2021/12/09 02:25:34;;;;;;;18.75;9.98;;;;;;;-6.52;71.11;99630.72;4946084;28;20053;-82
2021/12/09 02:28:00;;;;;;;;;;;;;;;-6.50;72.07;99633.38;4926344;29;20054;-81
2021/12/09 02:30:25;;;;;;;17.52;9.50;;;;;;;-6.48;72.57;99630.16;4940107;28;19922;-81
2021/12/09 02:32:51;;;;;;;18.95;10.52;;;;;;;-6.55;71.41;99637.22;4925844;29;20130;-81
2021/12/09 02:35:17;;;;;;;18.50;9.75;;;;;;;-6.47;72.45;99644.50;4955078;28;20039;-80
2021/12/09 02:37:44;;;;;;;19.20;10.75;;;;;;;-6.48;72.24;99647.81;4955768;29;20043;-81
2021/12/09 02:40:10;;;;;;;16.73;9.65;;;;;;;-6.53;72.45;99653.34;4957025;28;20039;-80
2021/12/09 02:42:36;;;;;;;;;;;;;;;-6.41;72.76;99664.22;4947666;29;20466;-82
2021/12/09 02:45:07;;;;;;;20.25;9.68;;;;;;;-6.32;71.74;99658.84;4953553;28;19918;-81
2021/12/09 02:47:33;;;;;;;18.52;9.45;;;;;;;-6.26;72.08;99664.31;4960107;28;20043;-80
2021/12/09 02:49:59;;;;;;;18.85;10.38;;;;;;;-6.28;71.98;99668.38;4941345;29;20050;-80
2021/12/09 02:52:25;;;;;;;20.02;9.38;;;;;;;-6.23;72.42;99675.47;4940954;28;20043;-80
2021/12/09 02:54:51;;;;;;;16.20;9.20;;;;;;;-6.20;72.37;99673.13;4930380;29;20042;-80
2021/12/09 02:57:17;;;;;;;;;;;;;;;-6.25;71.48;99683.72;4941328;28;20047;-81
2021/12/09 02:59:43;;;;;;;20.27;10.20;;;;;;;-6.22;71.57;99676.34;4942237;29;19957;-80
2021/12/09 03:02:10;;;;;;;19.83;10.10;;;;;;;-6.26;71.38;99670.22;4940845;29;20106;-81
2021/12/09 03:04:48;;;;;;;21.17;10.40;;;;;;;-6.26;71.46;99676.91;4928767;28;20046;-81
2021/12/09 03:07:15;;;;;;;17.60;10.05;;;;;;;-6.27;71.49;99677.72;4948773;29;20451;-81
2021/12/09 03:09:49;;;;;;;21.10;9.88;;;;;;;-6.42;71.06;99675.94;4957716;28;20066;-80
2021/12/09 03:12:19;;;;;;;17.95;10.43;;;;;;;-6.38;72.24;99677.00;4925361;29;20043;-80
2021/12/09 03:14:46;;;;;;;16.23;9.75;;;;;;;-6.41;71.11;99680.25;4925145;28;20043;-81
2021/12/09 03:17:11;;;;;;;16.23;9.50;;;;;;;-6.39;71.40;99682.84;4935545;29;20086;-80
2021/12/09 03:19:38;;;;;;;19.85;10.73;;;;;;;-6.27;72.48;99688.69;4925960;28;20046;-80
2021/12/09 03:22:04;;;;;;;19.27;9.45;;;;;;;-6.24;71.30;99693.88;4947919;28;20045;-80
2021/12/09 03:24:30;;;;;;;18.73;9.35;;;;;;;-6.25;71.95;99697.19;4950054;28;20047;-80
2021/12/09 03:26:56;;;;;;;17.20;10.00;;;;;;;-6.35;71.46;99692.38;4939327;29;20043;-81
2021/12/09 03:29:23;;;;;;;16.60;9.32;;;;;;;-6.28;71.81;99694.47;4939844;29;20043;-81
2021/12/09 03:31:50;;;;;;;17.08;9.93;;;;;;;-6.31;72.04;99709.44;4942689;28;20055;-81
2021/12/09 03:34:17;;;;;;;18.15;9.57;;;;;;;-6.28;71.94;99707.09;4943306;28;20096;-82
2021/12/09 03:36:43;;;;;;;19.15;10.30;;;;;;;-6.23;71.51;99715.88;4943207;28;20039;-82
2021/12/09 03:39:13;;;;;;;19.17;9.90;;;;;;;-6.17;71.90;99701.09;4943470;28;20073;-81
2021/12/09 03:41:38;;;;;;;22.25;10.38;;;;;;;-6.23;71.83;99710.81;4943540;28;20090;-82
2021/12/09 03:44:05;;;;;;;17.55;9.10;;;;;;;-6.22;71.21;99715.06;4935979;29;20042;-81
2021/12/09 03:46:31;;;;;;;17.90;10.18;;;;;;;-6.40;71.97;99692.06;4934824;29;20102;-81
2021/12/09 03:48:57;;;;;;;17.50;9.32;;;;;;;-6.28;71.62;99717.19;4940073;29;20050;-80
2021/12/09 03:51:23;;;;;;;21.08;10.63;;;;;;;-6.33;70.97;99723.59;4932102;29;20045;-81
2021/12/09 03:53:48;;;;;;;21.95;10.80;;;;;;;-6.40;71.47;99727.41;4940137;28;20405;-81
2021/12/09 03:56:14;;;;;;;16.77;9.32;;;;;;;-6.36;71.96;99717.50;4940007;29;20414;-81
2021/12/09 03:58:40;;;;;;;17.20;9.73;;;;;;;-6.39;71.80;99705.56;4950553;28;20042;-81
2021/12/09 04:01:05;;;;;;;18.30;9.68;;;;;;;-6.27;72.29;99711.41;4930242;28;20577;-82
2021/12/09 04:03:31;;;;;;;17.48;9.20;;;;;;;-6.16;72.20;99712.94;4939974;29;20046;-83
2021/12/09 04:05:57;;;;;;;20.70;10.05;;;;;;;-6.19;71.50;99712.72;4936237;28;20134;-82
2021/12/09 04:08:23;;;;;;;18.20;9.60;;;;;;;-6.25;72.04;99706.44;4946425;28;20486;-82
2021/12/09 04:10:49;;;;;;;18.60;9.85;;;;;;;-6.23;71.39;99702.34;4958700;28;20045;-81
2021/12/09 04:13:16;;;;;;;20.67;11.40;;;;;;;-6.34;71.59;99696.63;4931050;29;20082;-81
2021/12/09 04:15:42;;;;;;;18.35;9.75;;;;;;;-6.26;71.68;99702.16;4942875;29;20027;-81
2021/12/09 04:18:09;;;;;;;17.05;9.50;;;;;;;-6.18;72.03;99684.19;4924865;28;20054;-81
2021/12/09 04:20:35;;;;;;;18.10;9.82;;;;;;;-6.25;71.15;99682.06;4930731;28;20066;-80
2021/12/09 04:23:00;;;;;;;;;;;;;;;-6.23;71.54;99685.56;4946033;29;20074;-81
2021/12/09 04:25:26;;;;;;;20.35;10.48;;;;;;;-6.26;71.30;99698.00;4955300;28;20377;-81
2021/12/09 04:27:53;;;;;;;;;;;;;;;-6.23;71.99;99699.81;4955915;28;20039;-81
2021/12/09 04:30:19;;;;;;;19.17;10.67;;;;;;;-6.37;70.94;99704.00;4938939;28;19915;-81
2021/12/09 04:32:45;;;;;;;20.15;11.00;;;;;;;-6.30;71.68;99703.63;4923293;29;20141;-81
2021/12/09 04:35:11;;;;;;;;;;;;;;;-6.33;70.63;99708.47;4919584;28;20402;-80
2021/12/09 04:37:38;;;;;;;;;;;;;;;-6.21;72.12;99706.72;4939809;29;20029;-80
2021/12/09 04:40:08;;;;;;;19.27;10.43;;;;;;;-6.23;71.03;99705.75;4942055;28;19961;-81
2021/12/09 04:42:34;;;;;;;19.00;10.48;;;;;;;-6.30;70.11;99708.66;4928678;29;20077;-80
2021/12/09 04:45:00;;;;;;;20.13;11.18;;;;;;;-6.32;70.95;99709.34;4951360;28;20039;-83
2021/12/09 04:47:26;;;;;;;18.80;11.40;;;;;;;-6.21;72.14;99704.19;4942082;28;20101;-82
2021/12/09 04:49:51;;;;;;;;;;;;;;;-6.29;71.43;99710.41;4949310;29;20090;-82
2021/12/09 04:52:17;;;;;;;19.00;9.73;;;;;;;-6.25;71.43;99722.44;4939557;29;19922;-81
2021/12/09 04:54:43;;;;;;;19.73;10.75;;;;;;;-6.28;71.64;99708.75;4936882;29;20038;-81
2021/12/09 04:57:09;;;;;;;19.17;10.25;;;;;;;-6.27;71.00;99716.44;4949838;28;20118;-81
2021/12/09 04:59:35;;;;;;;19.23;10.82;;;;;;;-6.32;71.01;99725.38;4942068;28;20039;-82
2021/12/09 05:02:01;;;;;;;17.27;9.73;;;;;;;-6.22;71.13;99725.19;4924773;29;20053;-81
2021/12/09 05:04:28;;;;;;;17.35;9.82;;;;;;;-6.21;70.80;99734.50;4907137;28;20398;-82
2021/12/09 05:06:54;;;;;;;16.73;9.32;;;;;;;-6.27;70.86;99718.97;4929659;29;20107;-83
2021/12/09 05:09:20;;;;;;;18.15;9.95;;;;;;;-6.32;69.97;99730.44;4949433;29;20450;-82
2021/12/09 05:14:11;;;;;;;;;;;;;;;-6.21;70.83;99739.53;4947794;29;20106;-85
2021/12/09 05:16:37;;;;;;;22.73;9.98;;;;;;;-6.15;71.55;99734.00;4941034;28;20349;-79
2021/12/09 05:19:03;;;;;;;;;;;;;;;-6.13;71.51;99732.47;4950149;28;20093;-79
2021/12/09 05:21:36;;;;;;;18.13;10.07;;;;;;;-6.23;70.47;99731.00;4976889;28;19953;-82
2021/12/09 05:24:06;;;;;;;17.92;9.07;;;;;;;-6.23;71.40;99746.16;4911064;29;20042;-81
2021/12/09 05:26:39;;;;;;;16.27;9.15;;;;;;;-6.26;70.77;99751.00;4926899;28;20471;-83
2021/12/09 05:29:04;;;;;;;18.55;9.13;;;;;;;-6.36;71.15;99750.31;4928214;28;20047;-83
2021/12/09 05:34:15;;;;;;;18.35;9.52;;;;;;;-6.28;70.94;99767.69;4962420;28;20047;-81
2021/12/09 05:36:40;;;;;;;;;;;;;;;-6.25;71.54;99774.59;4935261;29;20031;-83
2021/12/09 05:39:08;;;;;;;18.75;9.80;;;;;;;-6.23;70.72;99778.97;4945357;28;19922;-84
2021/12/09 05:41:33;;;;;;;18.00;9.95;;;;;;;-6.26;71.59;99778.78;4952200;28;20150;-83
2021/12/09 05:44:03;;;;;;;16.73;9.18;;;;;;;-6.33;71.50;99765.66;4957276;29;20102;-80
2021/12/09 05:46:29;;;;;;;19.00;9.05;;;;;;;-6.32;70.94;99755.66;4944134;28;20045;-82
2021/12/09 05:48:55;;;;;;;17.55;9.57;;;;;;;-6.27;70.00;99784.59;4922434;28;20047;-82
2021/12/09 05:51:23;;;;;;;;;;;;;;;-6.32;70.26;99780.00;4941354;28;20039;-82
2021/12/09 05:53:50;;;;;;;17.88;9.75;;;;;;;-6.41;70.21;99786.25;4929117;29;20412;-82
2021/12/09 05:56:16;;;;;;;19.95;10.13;;;;;;;-6.53;71.03;99774.47;4943917;29;20055;-81
2021/12/09 05:58:41;;;;;;;20.50;9.10;;;;;;;-6.67;70.94;99774.44;4935840;28;20450;-83
2021/12/09 06:01:07;;;;;;;17.88;9.90;;;;;;;-6.63;71.37;99787.28;4955633;28;20070;-82
2021/12/09 06:03:34;;;;;;;17.58;8.93;;;;;;;-6.57;71.15;99785.13;4941786;29;20078;-80
2021/12/09 06:06:00;;;;;;;18.40;9.63;;;;;;;-6.68;71.12;99774.34;4935441;29;20075;-79
2021/12/09 06:08:26;;;;;;;18.65;9.48;;;;;;;-6.65;71.18;99779.56;4938847;29;20498;-80
2021/12/09 06:10:52;;;;;;;18.42;9.15;;;;;;;-6.64;71.48;99793.97;4928555;28;20042;-81
2021/12/09 06:13:18;;;;;;;18.67;10.00;;;;;;;-6.69;71.70;99782.66;4945160;28;20041;-83
2021/12/09 06:15:44;;;;;;;;;;;;;;;-6.73;71.85;99785.78;4927855;28;20046;-82
2021/12/09 06:18:09;;;;;;;18.05;10.10;;;;;;;-6.73;71.32;99785.78;4927577;29;19965;-82
2021/12/09 06:20:35;;;;;;;18.27;9.60;;;;;;;-6.71;71.81;99786.75;4926280;28;20592;-83
2021/12/09 06:23:01;;;;;;;17.13;8.88;;;;;;;-6.72;71.95;99785.88;4953941;29;20102;-81
2021/12/09 06:25:27;;;;;;;17.98;9.73;;;;;;;-6.68;71.54;99800.44;4943692;29;20062;-82
2021/12/09 06:27:55;;;;;;;20.15;9.82;;;;;;;-6.71;72.14;99790.16;4944989;28;20051;-80
2021/12/09 06:30:21;;;;;;;19.50;9.40;;;;;;;-6.69;72.43;99801.22;4939845;29;20047;-82
2021/12/09 06:32:46;;;;;;;17.15;9.55;;;;;;;-6.74;72.19;99794.97;4954781;28;20094;-83
2021/12/09 06:35:12;;;;;;;20.80;10.30;;;;;;;-6.73;72.61;99796.75;4930276;29;20069;-83
2021/12/09 06:37:43;;;;;;;20.65;10.27;;;;;;;-6.70;72.17;99801.97;4958315;28;20081;-81
2021/12/09 06:40:09;;;;;;;19.45;10.02;;;;;;;-6.74;72.00;99797.50;4976115;28;20043;-82
2021/12/09 06:42:35;;;;;;;18.38;9.38;;;;;;;-6.79;72.06;99796.31;4930647;29;20052;-82
2021/12/09 06:45:01;;;;;;;;;;;;;;;-6.60;72.02;99813.56;4940047;29;20035;-82
2021/12/09 06:47:26;;;;;;;18.25;9.70;;;;;;;-6.72;71.54;99798.50;4941342;28;20302;-82
2021/12/09 06:49:52;;;;;;;19.27;9.15;;;;;;;-6.64;71.48;99806.59;4926105;29;20051;-82
2021/12/09 06:52:19;;;;;;;16.58;8.95;;;;;;;-6.63;71.72;99817.53;4923891;29;20044;-82
2021/12/09 06:54:44;;;;;;;17.65;9.55;;;;;;;-6.70;72.16;99817.13;4894977;29;20044;-82
2021/12/09 06:57:10;;;;;;;16.60;9.75;;;;;;;-6.63;72.06;99820.94;4928257;29;20114;-82
2021/12/09 06:59:36;;;;;;;;;;;;;;;-6.58;72.40;99828.81;4926745;29;20056;-81
2021/12/09 07:02:02;;;;;;;17.73;9.07;;;;;;;-6.54;71.64;99831.63;4927729;29;19914;-81
2021/12/09 07:04:28;;;;;;;18.98;9.25;;;;;;;-6.66;71.66;99825.78;4929009;29;20166;-82
2021/12/09 07:06:53;;;;;;;15.68;8.75;;;;;;;-6.61;72.37;99829.47;4894753;29;20508;-81
2021/12/09 07:09:19;;;;;;;19.83;9.77;;;;;;;-6.77;71.91;99817.50;4928397;29;20043;-81
2021/12/09 07:11:50;;;;;;;16.63;8.73;;;;;;;-6.60;72.50;99828.69;4923425;29;20059;-80
2021/12/09 07:14:17;;;;;;;18.23;10.50;;;;;;;-6.73;71.58;99826.16;4939764;28;20058;-83
2021/12/09 07:16:43;;;;;;;18.00;9.43;;;;;;;-6.79;71.67;99826.59;4919085;29;20047;-82
2021/12/09 07:19:09;;;;;;;18.77;10.15;;;;;;;-6.68;72.10;99828.22;4948391;28;20059;-81
2021/12/09 07:21:34;;;;;;;18.40;9.73;;;;;;;-6.58;72.73;99839.78;4938446;28;20055;-81
2021/12/09 07:24:00;;;;;;;16.67;9.38;;;;;;;-6.56;72.54;99835.69;4934206;29;20039;-82
2021/12/09 07:26:26;;;;;;;;;;;;;;;-6.46;71.49;99842.22;4927636;28;20082;-81
2021/12/09 07:28:52;;;;;;;18.02;9.43;;;;;;;-6.49;71.71;99842.03;4939138;29;20017;-80
2021/12/09 07:31:17;;;;;;;23.13;10.63;;;;;;;-6.50;71.71;99835.25;4919248;29;20023;-82
2021/12/09 07:33:43;;;;;;;20.48;10.68;;;;;;;-6.42;71.82;99832.41;4910166;29;20063;-81
2021/12/09 07:36:09;;;;;;;;;;;;;;;-6.52;71.17;99841.81;4920048;29;20039;-83
2021/12/09 07:38:35;;;;;;;21.23;10.27;;;;;;;-6.44;73.05;99838.16;4935395;29;19918;-85
2021/12/09 07:41:00;;;;;;;;;;;;;;;-6.37;72.10;99842.81;4929812;29;20059;-81
2021/12/09 07:43:26;;;;;;;20.08;9.38;;;;;;;-6.33;72.07;99832.16;4954903;28;19922;-82
2021/12/09 07:45:52;;;;;;;15.52;8.80;;;;;;;-6.29;71.50;99838.28;4942978;28;20048;-81
2021/12/09 07:48:17;;;;;;;15.02;8.70;;;;;;;-6.22;71.21;99845.50;4949193;28;20046;-83
2021/12/09 07:50:43;;;;;;;16.85;9.10;;;;;;;-6.15;71.63;99848.50;4960263;28;20050;-83
2021/12/09 07:53:09;;;;;;;15.57;8.88;;;;;;;-6.16;71.51;99845.88;4955125;28;20034;-82
2021/12/09 07:55:35;;;;;;;;;;;;;;;-6.05;71.56;99846.56;4961493;28;20043;-81
2021/12/09 07:58:00;;;;;;;17.40;8.48;;;;;;;-6.04;71.47;99844.16;4951844;29;19914;-83
2021/12/09 08:00:28;;;;;;;18.98;9.60;;;;;;;-5.99;71.40;99852.03;4926626;28;20054;-83
2021/12/09 08:02:55;;;;;;;17.15;9.90;;;;;;;-6.10;71.13;99833.63;4949745;28;20047;-83
2021/12/09 08:05:21;;;;;;;17.48;9.95;;;;;;;-6.02;71.19;99852.69;4920990;29;20050;-82
2021/12/09 08:07:47;;;;;;;20.38;12.55;;;;;;;-5.99;71.39;99863.00;4960241;29;20122;-82
2021/12/09 08:10:14;;;;;;;17.05;9.55;;;;;;;-6.03;70.87;99845.91;4949470;28;20498;-83
2021/12/09 08:12:40;;;;;;;14.40;8.52;;;;;;;-5.89;71.59;99855.19;4949216;28;20047;-84
2021/12/09 08:15:07;;;;;;;;;;;;;;;-5.80;71.60;99865.00;4957724;28;20043;-86
2021/12/09 08:20:11;;;;;;;15.35;8.75;;;;;;;-5.81;70.85;99848.09;4966128;28;20049;-85
2021/12/09 08:22:37;;;;;;;17.05;9.35;;;;;;;-5.87;70.00;99846.03;4944240;29;20182;-81
2021/12/09 08:25:03;;;;;;;;;;;;;;;-5.75;70.72;99862.78;4947076;28;20037;-82
2021/12/09 08:27:29;;;;;;;16.35;9.25;;;;;;;-5.72;70.71;99853.75;4951842;28;19917;-83
2021/12/09 08:29:55;;;;;;;19.02;9.73;;;;;;;-5.57;70.08;99850.44;4960112;28;20102;-82
2021/12/09 08:32:20;;;;;;;;;;;;;;;-5.63;70.29;99858.50;4947814;28;20411;-84
2021/12/09 08:34:47;;;;;;;16.08;8.82;;;;;;;-5.63;70.52;99855.97;4959637;28;20068;-82
2021/12/09 08:37:12;;;;;;;;;;;;;;;-5.68;70.28;99869.94;4958261;28;20074;-82
2021/12/09 08:39:38;;;;;;;19.17;9.30;;;;;;;-5.63;70.69;99866.97;4952658;28;20008;-82
2021/12/09 08:42:04;;;;;;;;;;;;;;;-5.65;70.67;99863.44;4923239;29;20058;-82
2021/12/09 08:44:30;;;;;;;14.93;8.57;;;;;;;-5.66;70.82;99856.66;4941772;29;20309;-82
2021/12/09 08:46:56;;;;;;;18.58;9.50;;;;;;;-5.50;70.83;99861.00;4945081;28;20047;-83
2021/12/09 08:49:21;;;;;;;15.32;8.75;;;;;;;-5.53;70.78;99855.75;4963116;28;20046;-82
2021/12/09 08:51:47;;;;;;;20.13;9.60;;;;;;;-5.69;70.19;99848.84;4954675;28;20137;-82
2021/12/09 08:54:14;;;;;;;14.40;8.52;;;;;;;-5.68;71.56;99845.59;4936912;29;20099;-83
2021/12/09 08:56:39;;;;;;;16.38;9.20;;;;;;;-5.51;71.28;99863.44;4941808;29;20053;-82
2021/12/09 08:59:06;;;;;;;18.40;9.02;;;;;;;-5.38;70.57;99851.66;4948343;29;20053;-82
2021/12/09 09:01:32;;;;;;;20.33;9.75;;;;;;;-5.32;70.87;99855.34;4933642;28;20039;-83
2021/12/09 09:03:59;;;;;;;15.93;9.05;;;;;;;-5.48;69.96;99856.06;4936404;28;20043;-83
2021/12/09 09:06:25;;;;;;;15.75;8.63;;;;;;;-5.42;70.71;99841.25;4929412;29;20054;-83
2021/12/09 09:08:56;;;;;;;15.05;8.85;;;;;;;-5.37;70.99;99832.28;4944384;29;20054;-88
2021/12/09 09:11:22;;;;;;;18.05;9.95;;;;;;;-5.21;70.95;99854.34;4925788;29;20070;-83
2021/12/09 09:13:48;;;;;;;15.88;9.10;;;;;;;-5.20;70.87;99849.38;4948717;28;20066;-83
2021/12/09 09:16:15;;;;;;;17.10;9.30;;;;;;;-5.19;70.81;99846.06;4955018;28;20049;-84
2021/12/09 09:18:41;;;;;;;17.13;9.27;;;;;;;-5.22;70.67;99848.44;4920049;28;20031;-83
2021/12/09 09:21:07;;;;;;;14.73;9.30;;;;;;;-5.11;70.72;99846.53;4949681;28;20126;-82
2021/12/09 09:23:33;;;;;;;16.58;9.35;;;;;;;-4.92;70.75;99858.63;4956522;29;20042;-85
2021/12/09 09:26:00;;;;;;;16.90;8.95;;;;;;;-4.91;70.16;99848.59;4958274;28;20043;-83
2021/12/09 09:28:26;;;;;;;16.38;9.77;;;;;;;-4.88;69.74;99863.09;4938689;29;20066;-83
2021/12/09 09:30:57;;;;;;;;;;;;;;;-4.88;70.71;99865.63;4945023;28;20498;-83
2021/12/09 09:33:25;;;;;;;17.27;10.18;;;;;;;-5.02;70.54;99853.81;4956261;28;19918;-83
2021/12/09 09:35:51;;;;;;;20.38;10.20;;;;;;;-4.97;70.83;99868.47;4937984;28;20039;-83
2021/12/09 09:38:17;;;;;;;;;;;;;;;-4.91;70.30;99867.97;4933985;28;20101;-83
2021/12/09 09:40:54;;;;;;;19.92;10.13;;;;;;;-4.92;70.95;99862.03;4954145;28;19914;-84
2021/12/09 09:45:54;;;;;;;19.42;10.23;;;;;;;-4.98;71.09;99850.69;4929499;29;20479;-82
2021/12/09 09:48:20;;;;;;;18.88;10.85;;;;;;;-4.81;70.58;99867.75;4926008;28;20491;-84
2021/12/09 09:50:46;;;;;;;;;;;;;;;-4.76;70.25;99865.50;4939909;29;20531;-83
2021/12/09 09:53:11;;;;;;;18.05;9.75;;;;;;;-4.95;70.34;99854.28;4943978;29;20037;-84
2021/12/09 09:55:37;;;;;;;16.17;9.60;;;;;;;-4.89;70.82;99862.22;4965654;28;20035;-84
2021/12/09 09:58:04;;;;;;;17.60;10.10;;;;;;;-4.92;70.65;99853.56;4942008;28;20037;-84
2021/12/09 10:00:29;;;;;;;18.50;9.73;;;;;;;-4.98;70.92;99870.94;4928198;28;20023;-83
2021/12/09 10:02:55;;;;;;;16.77;9.80;;;;;;;-4.89;71.68;99858.84;4936193;28;20053;-82
2021/12/09 10:05:28;;;;;;;17.77;10.13;;;;;;;-4.99;70.54;99867.53;4937432;28;20128;-84
2021/12/09 10:07:55;;;;;;;14.98;9.18;;;;;;;-4.83;71.75;99873.50;4945842;28;20225;-83
2021/12/09 10:10:23;;;;;;;17.00;10.07;;;;;;;-4.87;71.00;99867.38;4913530;28;20031;-83
2021/12/09 10:13:02;;;;;;;18.88;10.60;;;;;;;-4.77;71.34;99872.19;4947125;28;20069;-83
2021/12/09 10:15:41;;;;;;;25.25;11.35;;;;;;;-4.65;71.16;99867.00;4932774;28;20047;-83
2021/12/09 10:18:08;;;;;;;20.67;9.80;;;;;;;-4.68;70.98;99864.28;4954128;29;20053;-81
2021/12/09 10:20:49;;;;;;;19.90;10.45;;;;;;;-4.71;71.01;99866.66;4937562;29;20043;-81
2021/12/09 10:23:50;;;;;;;21.42;10.52;;;;;;;-4.66;70.97;99872.84;4948020;28;20053;-84
2021/12/09 10:26:25;;;;;;;19.73;10.60;;;;;;;-4.54;70.79;99881.16;4962679;28;20609;-82
2021/12/09 10:28:53;;;;;;;14.75;9.55;;;;;;;-4.46;71.18;99881.63;4943820;29;20043;-83
2021/12/09 10:31:27;;;;;;;16.83;9.43;;;;;;;-4.48;70.42;99878.13;4911119;28;20074;-81
2021/12/09 10:34:04;;;;;;;18.63;9.25;;;;;;;-4.32;70.13;99887.50;4924553;29;20094;-82
2021/12/09 10:36:39;;;;;;;16.35;8.98;;;;;;;-4.40;69.83;99884.50;4958991;28;20043;-84
2021/12/09 10:39:17;;;;;;;18.85;9.30;;;;;;;-4.49;70.15;99876.38;4962642;28;20518;-83
2021/12/09 10:41:42;;;;;;;16.05;9.35;;;;;;;-4.56;69.48;99867.53;4940419;28;20118;-83
2021/12/09 10:44:08;;;;;;;17.17;9.25;;;;;;;-4.46;70.39;99876.56;4943849;28;20107;-84
2021/12/09 10:46:49;;;;;;;19.85;11.60;;;;;;;-4.43;70.62;99881.81;4932875;29;20047;-85
2021/12/09 10:49:17;;;;;;;25.65;12.88;;;;;;;-4.41;70.14;99876.03;4951351;28;20039;-82
2021/12/09 10:51:55;;;;;;;20.50;10.57;;;;;;;-4.40;70.67;99876.91;4949583;28;20045;-83
2021/12/09 10:54:32;;;;;;;17.55;10.05;;;;;;;-4.36;70.26;99886.44;4946276;29;20050;-83
2021/12/09 10:57:24;;;;;;;18.23;10.80;;;;;;;-4.46;69.66;99886.69;4924219;29;20042;-84
2021/12/09 10:59:51;;;;;;;19.73;10.32;;;;;;;-4.46;70.11;99891.75;4960668;28;20062;-84
2021/12/09 11:02:16;;;;;;;;;;;;;;;-4.47;70.46;99893.41;4958524;28;20035;-83
2021/12/09 11:05:06;;;;;;;20.23;11.00;;;;;;;-4.53;70.24;99884.59;4946228;29;19946;-82
2021/12/09 11:07:32;;;;;;;19.45;10.18;;;;;;;-4.60;70.63;99901.94;4946474;28;20462;-82
2021/12/09 11:10:21;;;;;;;18.98;9.63;;;;;;;-4.60;70.63;99909.53;4951322;28;20038;-82
2021/12/09 11:12:55;;;;;;;17.48;9.60;;;;;;;-4.66;70.80;99888.91;4961220;28;20130;-83
2021/12/09 11:15:22;;;;;;;20.13;10.23;;;;;;;-4.58;71.40;99896.97;4952151;29;20454;-85
2021/12/09 11:17:50;;;;;;;17.33;8.88;;;;;;;-4.49;71.55;99891.56;4943392;28;20178;-86
2021/12/09 11:20:41;;;;;;;17.95;9.82;;;;;;;-4.46;70.82;99900.22;4932025;29;20062;-85
2021/12/09 11:23:27;;;;;;;16.45;9.48;;;;;;;-4.46;70.87;99891.75;4946546;28;20094;-83
2021/12/09 11:25:56;;;;;;;15.32;9.13;;;;;;;-4.44;70.67;99903.72;4928254;29;20154;-83
2021/12/09 11:28:22;;;;;;;20.27;11.05;;;;;;;-4.54;70.33;99913.19;4960778;28;20085;-83
2021/12/09 11:31:08;;;;;;;151.30;92.40;;;;;;;-4.66;71.00;99908.28;4948516;28;20039;-83
2021/12/09 11:33:41;;;;;;;28.95;13.65;;;;;;;-4.57;71.06;99908.84;4959275;28;20047;-82
2021/12/09 11:36:10;;;;;;;23.35;12.57;;;;;;;-4.56;71.77;99904.66;4940204;29;20437;-82
2021/12/09 11:39:16;;;;;;;21.88;11.75;;;;;;;-4.51;71.08;99919.31;4945563;28;20498;-82
2021/12/09 11:41:43;;;;;;;25.40;12.45;;;;;;;-4.60;71.36;99919.66;4972165;28;20058;-82